sensor_id;sensor_type;location;lat;lon;timestamp;temperature;humidity
37158;DHT22;23050;51.776;22.638;2022-10-03T12:16:23;12.70;99.90
37158;DHT22;23050;51.776;22.638;2022-10-03T12:19:05;13.00;99.90
37158;DHT22;23050;51.776;22.638;2022-10-03T12:24:38;14.00;99.90
37158;DHT22;23050;51.776;22.638;2022-10-03T12:27:35;14.60;99.90
37158;DHT22;23050;51.776;22.638;2022-10-03T12:30:08;14.80;99.90
37158;DHT22;23050;51.776;22.638;2022-10-03T12:35:37;15.00;99.90
37158;DHT22;23050;51.776;22.638;2022-10-03T12:50:12;15.20;99.90
37158;DHT22;23050;51.776;22.638;2022-10-03T12:58:49;13.50;99.90
37158;DHT22;23050;51.776;22.638;2022-10-03T13:10:08;14.10;99.90
37158;DHT22;23050;51.776;22.638;2022-10-03T13:15:42;14.00;99.90
37158;DHT22;23050;51.776;22.638;2022-10-03T13:21:04;14.80;99.90
37158;DHT22;23050;51.776;22.638;2022-10-03T13:23:56;14.80;99.90
37158;DHT22;23050;51.776;22.638;2022-10-03T13:29:25;15.10;98.70
37158;DHT22;23050;51.776;22.638;2022-10-03T13:32:08;14.80;95.70
37158;DHT22;23050;51.776;22.638;2022-10-03T13:34:50;15.00;97.70
37158;DHT22;23050;51.776;22.638;2022-10-03T13:37:51;15.10;95.20
37158;DHT22;23050;51.776;22.638;2022-10-03T13:40:30;15.00;90.00
37158;DHT22;23050;51.776;22.638;2022-10-03T13:43:01;14.90;76.20
37158;DHT22;23050;51.776;22.638;2022-10-03T13:45:31;14.70;76.20
37158;DHT22;23050;51.776;22.638;2022-10-03T13:48:13;14.60;80.10
37158;DHT22;23050;51.776;22.638;2022-10-03T13:50:52;14.10;82.70
37158;DHT22;23050;51.776;22.638;2022-10-03T13:53:56;13.80;92.00
37158;DHT22;23050;51.776;22.638;2022-10-03T14:01:59;15.40;81.50
37158;DHT22;23050;51.776;22.638;2022-10-03T14:10:16;15.70;43.70
37158;DHT22;23050;51.776;22.638;2022-10-03T14:12:58;15.10;52.30
37158;DHT22;23050;51.776;22.638;2022-10-03T14:15:52;14.50;65.00
37158;DHT22;23050;51.776;22.638;2022-10-03T14:19:00;14.10;74.00
37158;DHT22;23050;51.776;22.638;2022-10-03T14:24:33;13.60;90.60
37158;DHT22;23050;51.776;22.638;2022-10-03T14:30:12;13.70;91.20
37158;DHT22;23050;51.776;22.638;2022-10-03T14:33:03;13.70;92.60
37158;DHT22;23050;51.776;22.638;2022-10-03T14:36:00;13.90;95.40
37158;DHT22;23050;51.776;22.638;2022-10-03T14:38:39;14.20;84.60
37158;DHT22;23050;51.776;22.638;2022-10-03T14:44:21;14.60;70.40
37158;DHT22;23050;51.776;22.638;2022-10-03T14:49:19;15.00;47.80
37158;DHT22;23050;51.776;22.638;2022-10-03T14:51:51;14.70;53.20
37158;DHT22;23050;51.776;22.638;2022-10-03T14:54:23;14.80;52.70
37158;DHT22;23050;51.776;22.638;2022-10-03T14:56:50;14.80;51.60
37158;DHT22;23050;51.776;22.638;2022-10-03T14:59:24;14.70;47.90
37158;DHT22;23050;51.776;22.638;2022-10-03T15:01:53;14.30;43.50
37158;DHT22;23050;51.776;22.638;2022-10-03T15:04:33;14.20;47.30
37158;DHT22;23050;51.776;22.638;2022-10-03T15:07:02;14.20;49.70
37158;DHT22;23050;51.776;22.638;2022-10-03T15:12:15;14.30;42.50
37158;DHT22;23050;51.776;22.638;2022-10-03T15:15:19;14.20;46.20
37158;DHT22;23050;51.776;22.638;2022-10-03T15:17:50;14.40;48.80
37158;DHT22;23050;51.776;22.638;2022-10-03T15:20:19;14.40;51.70
37158;DHT22;23050;51.776;22.638;2022-10-03T15:22:52;14.10;49.60
37158;DHT22;23050;51.776;22.638;2022-10-03T15:25:31;14.10;50.30
37158;DHT22;23050;51.776;22.638;2022-10-03T15:28:07;14.10;48.20
37158;DHT22;23050;51.776;22.638;2022-10-03T15:30:37;14.00;52.80
37158;DHT22;23050;51.776;22.638;2022-10-03T15:33:17;13.70;56.10
37158;DHT22;23050;51.776;22.638;2022-10-03T15:35:47;13.50;61.30
37158;DHT22;23050;51.776;22.638;2022-10-03T15:38:29;13.40;67.00
37158;DHT22;23050;51.776;22.638;2022-10-03T15:43:44;12.60;86.20
37158;DHT22;23050;51.776;22.638;2022-10-03T15:46:32;12.30;91.70
37158;DHT22;23050;51.776;22.638;2022-10-03T15:49:03;12.10;95.90
37158;DHT22;23050;51.776;22.638;2022-10-03T15:51:31;11.80;97.70
37158;DHT22;23050;51.776;22.638;2022-10-03T15:53:59;11.60;99.90
37158;DHT22;23050;51.776;22.638;2022-10-03T15:56:38;11.50;99.90
37158;DHT22;23050;51.776;22.638;2022-10-03T15:59:28;11.30;99.90
37158;DHT22;23050;51.776;22.638;2022-10-03T16:01:55;11.20;99.90
37158;DHT22;23050;51.776;22.638;2022-10-03T16:04:28;11.10;99.90
37158;DHT22;23050;51.776;22.638;2022-10-03T16:06:58;11.00;99.90
37158;DHT22;23050;51.776;22.638;2022-10-03T16:14:44;10.80;99.90
37158;DHT22;23050;51.776;22.638;2022-10-03T16:17:22;10.60;99.90
37158;DHT22;23050;51.776;22.638;2022-10-03T16:20:36;10.60;99.90
37158;DHT22;23050;51.776;22.638;2022-10-03T16:23:23;10.50;99.90
37158;DHT22;23050;51.776;22.638;2022-10-03T16:25:58;10.40;99.90
37158;DHT22;23050;51.776;22.638;2022-10-03T16:28:37;10.30;99.90
37158;DHT22;23050;51.776;22.638;2022-10-03T16:31:11;10.30;99.90
37158;DHT22;23050;51.776;22.638;2022-10-03T16:33:48;10.20;99.90
37158;DHT22;23050;51.776;22.638;2022-10-03T16:36:17;10.20;99.90
37158;DHT22;23050;51.776;22.638;2022-10-03T16:38:58;10.20;99.90
37158;DHT22;23050;51.776;22.638;2022-10-03T16:41:27;10.10;99.90
37158;DHT22;23050;51.776;22.638;2022-10-03T16:44:05;10.10;99.90
37158;DHT22;23050;51.776;22.638;2022-10-03T16:46:38;10.10;99.90
37158;DHT22;23050;51.776;22.638;2022-10-03T16:52:03;10.00;99.90
37158;DHT22;23050;51.776;22.638;2022-10-03T16:54:35;10.00;99.90
37158;DHT22;23050;51.776;22.638;2022-10-03T16:57:05;9.90;99.90
37158;DHT22;23050;51.776;22.638;2022-10-03T16:59:35;9.90;99.90
37158;DHT22;23050;51.776;22.638;2022-10-03T17:02:05;10.00;99.90
37158;DHT22;23050;51.776;22.638;2022-10-03T17:04:38;9.90;99.90
37158;DHT22;23050;51.776;22.638;2022-10-03T17:07:15;9.80;99.90
37158;DHT22;23050;51.776;22.638;2022-10-03T17:09:50;9.80;99.90
37158;DHT22;23050;51.776;22.638;2022-10-03T17:12:27;9.80;99.90
37158;DHT22;23050;51.776;22.638;2022-10-03T17:14:56;9.80;99.90
37158;DHT22;23050;51.776;22.638;2022-10-03T17:23:23;9.70;99.90
37158;DHT22;23050;51.776;22.638;2022-10-03T17:31:04;9.60;99.90
37158;DHT22;23050;51.776;22.638;2022-10-03T17:33:39;9.60;99.90
37158;DHT22;23050;51.776;22.638;2022-10-03T17:41:26;9.60;99.90
37158;DHT22;23050;51.776;22.638;2022-10-03T17:52:15;9.60;99.90
37158;DHT22;23050;51.776;22.638;2022-10-03T17:54:45;9.70;99.90
37158;DHT22;23050;51.776;22.638;2022-10-03T17:57:34;9.60;99.90
37158;DHT22;23050;51.776;22.638;2022-10-03T18:00:25;9.60;99.90
37158;DHT22;23050;51.776;22.638;2022-10-03T18:03:18;9.60;99.90
37158;DHT22;23050;51.776;22.638;2022-10-03T18:05:48;9.60;99.90
37158;DHT22;23050;51.776;22.638;2022-10-03T18:08:38;9.50;99.90
37158;DHT22;23050;51.776;22.638;2022-10-03T18:11:19;9.50;99.90
37158;DHT22;23050;51.776;22.638;2022-10-03T18:13:50;9.40;99.90
37158;DHT22;23050;51.776;22.638;2022-10-03T18:16:28;9.40;99.90
37158;DHT22;23050;51.776;22.638;2022-10-03T18:19:18;9.40;99.90
37158;DHT22;23050;51.776;22.638;2022-10-03T18:22:14;9.50;99.90
37158;DHT22;23050;51.776;22.638;2022-10-03T18:33:02;9.40;99.90
37158;DHT22;23050;51.776;22.638;2022-10-03T18:35:33;9.30;99.90
37158;DHT22;23050;51.776;22.638;2022-10-03T18:38:06;9.40;99.90
37158;DHT22;23050;51.776;22.638;2022-10-03T18:40:35;9.30;99.90
37158;DHT22;23050;51.776;22.638;2022-10-03T18:43:04;9.30;99.90
37158;DHT22;23050;51.776;22.638;2022-10-03T18:45:36;9.30;99.90
37158;DHT22;23050;51.776;22.638;2022-10-03T18:48:14;9.20;99.90
37158;DHT22;23050;51.776;22.638;2022-10-03T18:50:56;9.20;99.90
37158;DHT22;23050;51.776;22.638;2022-10-03T18:53:30;9.20;99.90
37158;DHT22;23050;51.776;22.638;2022-10-03T18:56:01;9.20;99.90
37158;DHT22;23050;51.776;22.638;2022-10-03T18:58:34;9.20;99.90
37158;DHT22;23050;51.776;22.638;2022-10-03T19:01:21;9.20;99.90
37158;DHT22;23050;51.776;22.638;2022-10-03T19:04:11;9.20;99.90
37158;DHT22;23050;51.776;22.638;2022-10-03T19:06:48;9.10;99.90
37158;DHT22;23050;51.776;22.638;2022-10-03T19:09:25;9.10;99.90
37158;DHT22;23050;51.776;22.638;2022-10-03T19:12:17;9.10;99.90
37158;DHT22;23050;51.776;22.638;2022-10-03T19:20:31;9.10;99.90
37158;DHT22;23050;51.776;22.638;2022-10-03T19:23:32;9.10;99.90
37158;DHT22;23050;51.776;22.638;2022-10-03T19:26:05;9.10;99.90
37158;DHT22;23050;51.776;22.638;2022-10-03T19:28:36;9.10;99.90
37158;DHT22;23050;51.776;22.638;2022-10-03T19:31:32;9.10;99.90
37158;DHT22;23050;51.776;22.638;2022-10-03T19:34:45;9.00;99.90
37158;DHT22;23050;51.776;22.638;2022-10-03T19:36:52;9.00;99.90
37158;DHT22;23050;51.776;22.638;2022-10-03T19:39:20;9.00;99.90
37158;DHT22;23050;51.776;22.638;2022-10-03T19:41:52;8.90;99.90
37158;DHT22;23050;51.776;22.638;2022-10-03T19:44:23;9.00;99.90
37158;DHT22;23050;51.776;22.638;2022-10-03T19:47:12;9.00;99.90
37158;DHT22;23050;51.776;22.638;2022-10-03T19:49:51;9.00;99.90
37158;DHT22;23050;51.776;22.638;2022-10-03T19:52:35;9.00;99.90
37158;DHT22;23050;51.776;22.638;2022-10-03T19:55:19;9.00;99.90
37158;DHT22;23050;51.776;22.638;2022-10-03T19:58:02;9.00;99.90
37158;DHT22;23050;51.776;22.638;2022-10-03T20:00:34;8.90;99.90
37158;DHT22;23050;51.776;22.638;2022-10-03T20:03:11;8.90;99.90
37158;DHT22;23050;51.776;22.638;2022-10-03T20:11:29;8.70;99.90
37158;DHT22;23050;51.776;22.638;2022-10-03T20:14:00;8.70;99.90
37158;DHT22;23050;51.776;22.638;2022-10-03T20:16:31;8.70;99.90
37158;DHT22;23050;51.776;22.638;2022-10-03T20:19:21;8.70;99.90
37158;DHT22;23050;51.776;22.638;2022-10-03T20:21:54;8.70;99.90
37158;DHT22;23050;51.776;22.638;2022-10-03T20:27:07;8.60;99.90
37158;DHT22;23050;51.776;22.638;2022-10-03T20:29:43;8.60;99.90
37158;DHT22;23050;51.776;22.638;2022-10-03T20:32:14;8.60;99.90
37158;DHT22;23050;51.776;22.638;2022-10-03T20:34:48;8.50;99.90
37158;DHT22;23050;51.776;22.638;2022-10-03T20:40:23;8.50;99.90
37158;DHT22;23050;51.776;22.638;2022-10-03T20:43:01;8.50;99.90
37158;DHT22;23050;51.776;22.638;2022-10-03T20:45:29;8.50;99.90
37158;DHT22;23050;51.776;22.638;2022-10-03T20:48:29;8.60;99.90
37158;DHT22;23050;51.776;22.638;2022-10-03T20:50:56;8.50;99.90
37158;DHT22;23050;51.776;22.638;2022-10-03T20:53:26;8.50;99.90
37158;DHT22;23050;51.776;22.638;2022-10-03T20:58:31;8.40;99.90
37158;DHT22;23050;51.776;22.638;2022-10-03T21:06:24;8.40;99.90
37158;DHT22;23050;51.776;22.638;2022-10-03T21:08:53;8.50;99.90
37158;DHT22;23050;51.776;22.638;2022-10-03T21:11:20;8.40;99.90
37158;DHT22;23050;51.776;22.638;2022-10-03T21:16:36;8.40;99.90
37158;DHT22;23050;51.776;22.638;2022-10-03T21:19:27;8.40;99.90
